Satsuki — JD3997 — position and weather

sailwx.info

Track history (hours):
 
Tides and Currents Weather Stations Pressure Air Temp Water Temp Dewpoint Dewpoint Depression Visibility Wind Speed Wind Dir Waves Ship Positions

Satsuki

Last reported at 2017-Sep-21 10:50 UTC. Time now 2017-Sep-22 22:33 UTC.
Position N 34°59' E 139°20'.

Length 64 m; draft 3.7 m.

Type: Tanker. MMSI: 431007429.

Date/timePositionNaut miles runAvg speedWind from/ knotsBaromVisibWave heightAir tempDewpointWater temp
2017-Sep-21 10:50N 34°59' E 139°20'611.0
2017-Sep-21 10:16N 35°02' E 139°26'311.0
2017-Sep-21 09:59N 35°03' E 139°30'511.2
2017-Sep-21 09:30N 35°05' E 139°35'611.1
2017-Sep-21 09:00N 35°08' E 139°42'510.2
2017-Sep-21 08:30N 35°12' E 139°45'5 9.9
2017-Sep-21 08:00N 35°17' E 139°45'510.1
2017-Sep-21 07:30N 35°21' E 139°42'5 9.9
2017-Sep-21 07:00N 35°26' E 139°45'5 9.6
2017-Sep-21 06:30N 35°30' E 139°47'2 3.5
2017-Sep-21 06:00N 35°32' E 139°46'0 0.0
2017-Sep-21 05:30N 35°32' E 139°46'0 0.0
2017-Sep-21 05:00N 35°32' E 139°46'0 0.0
2017-Sep-21 04:30N 35°32' E 139°46'0 0.0
2017-Sep-21 04:00N 35°32' E 139°46'0 0.0
2017-Sep-21 03:30N 35°32' E 139°46'0 0.0
2017-Sep-21 03:00N 35°32' E 139°46'0 0.0
2017-Sep-21 02:30N 35°32' E 139°46'0 0.0
2017-Sep-21 02:00N 35°32' E 139°46'0 0.0
2017-Sep-21 01:30N 35°32' E 139°46'0 0.0
2017-Sep-21 01:00N 35°32' E 139°46'0 0.0
2017-Sep-21 00:30N 35°32' E 139°46'0 0.1
2017-Sep-21 00:01N 35°32' E 139°46'2 3.8
2017-Sep-20 23:30N 35°30' E 139°47'2 3.2
2017-Sep-20 23:00N 35°29' E 139°49'1 2.1
2017-Sep-20 22:30N 35°28' E 139°47'5 9.7
2017-Sep-20 22:00N 35°26' E 139°42'2 4.0
2017-Sep-20 21:30N 35°27' E 139°40'0 0.0
2017-Sep-20 21:00N 35°27' E 139°40'0 0.0
2017-Sep-20 20:30N 35°27' E 139°40'0 0.0
2017-Sep-20 20:00N 35°27' E 139°40'0 0.0
2017-Sep-20 19:30N 35°27' E 139°40'0 0.0
2017-Sep-20 19:00N 35°27' E 139°40'0 0.0
2017-Sep-20 18:30N 35°27' E 139°40'0 0.0
2017-Sep-20 18:00N 35°27' E 139°40'0 0.0
2017-Sep-20 17:30N 35°27' E 139°40'0 0.0
2017-Sep-20 17:00N 35°27' E 139°40'0 0.0
2017-Sep-20 16:30N 35°27' E 139°40'0 0.0
2017-Sep-20 16:00N 35°27' E 139°40'0 0.0
2017-Sep-20 15:30N 35°27' E 139°40'0 0.0
2017-Sep-20 15:00N 35°27' E 139°40'0 0.0
2017-Sep-20 14:00N 35°27' E 139°40'0 0.0
2017-Sep-20 13:30N 35°27' E 139°40'0 0.0
2017-Sep-20 13:00N 35°27' E 139°40'0 0.0
2017-Sep-20 12:30N 35°27' E 139°40'0 0.0
2017-Sep-20 12:00N 35°27' E 139°40'0 0.0
2017-Sep-20 11:30N 35°27' E 139°40'0 0.0
2017-Sep-20 11:00N 35°27' E 139°40'0 0.0
2017-Sep-20 10:30N 35°27' E 139°40'0 0.0
2017-Sep-20 10:00N 35°27' E 139°40'0 0.0
2017-Sep-20 09:30N 35°27' E 139°40'0 0.0
2017-Sep-20 09:00N 35°27' E 139°40'0 0.0
2017-Sep-20 08:30N 35°27' E 139°40'0 0.0
2017-Sep-20 08:00N 35°27' E 139°40'0 0.0
2017-Sep-20 07:30N 35°27' E 139°40'0 0.0
2017-Sep-20 07:00N 35°27' E 139°40'0 0.0
2017-Sep-20 06:30N 35°27' E 139°40'0 0.0
2017-Sep-20 06:00N 35°27' E 139°40'0 0.0
2017-Sep-20 05:30N 35°27' E 139°40'0 0.4
2017-Sep-20 05:00N 35°27' E 139°40'3 6.7
2017-Sep-20 04:30N 35°27' E 139°44'5 9.2
2017-Sep-20 04:00N 35°29' E 139°49'2 4.7
2017-Sep-20 03:30N 35°30' E 139°52'510.9
2017-Sep-20 03:00N 35°28' E 139°58'1 0.3
2017-Sep-19 23:22N 35°27' E 139°58'2 4.5
2017-Sep-19 22:53N 35°29' E 139°57'2 0.6
2017-Sep-19 19:53N 35°29' E 139°55'0 0.0
2017-Sep-19 19:29N 35°29' E 139°55'0 0.0
2017-Sep-19 18:59N 35°29' E 139°55'0 0.1
2017-Sep-19 18:23N 35°29' E 139°55'0 0.0
2017-Sep-19 17:53N 35°29' E 139°55'0 0.0
2017-Sep-19 17:29N 35°29' E 139°55'0 0.0
2017-Sep-19 16:59N 35°29' E 139°55'3 5.6
2017-Sep-19 16:30N 35°28' E 139°52'611.3
2017-Sep-19 16:01N 35°25' E 139°47'611.4
2017-Sep-19 15:31N 35°19' E 139°44'510.7
2017-Sep-19 15:01N 35°15' E 139°47'510.7
2017-Sep-19 14:31N 35°09' E 139°46'510.5
2017-Sep-19 14:00N 35°04' E 139°43'511.0
2017-Sep-19 13:31N 35°01' E 139°39'2313.0
2017-Sep-19 11:43N 34°48' E 139°15'413.2
2017-Sep-19 11:23N 34°45' E 139°11'219 9.6
2017-Sep-18 12:35N 34°04' E 134°49'  
Track history (hours):
 
Tides and Currents Weather Stations Pressure Air Temp Water Temp Dewpoint Dewpoint Depression Visibility Wind Speed Wind Dir Waves Ship Positions

Satsuki

Last reported at 2017-Sep-21 10:50 UTC. Time now 2017-Sep-22 22:33 UTC.
Position N 34°59' E 139°20'.

Length 64 m; draft 3.7 m.

Type: Tanker. MMSI: 431007429.

Date/timePositionNaut miles runAvg speedWind from/ knotsBaromVisibWave heightAir tempDewpointWater temp
2017-Sep-21 10:50N 34°59' E 139°20'611.0
2017-Sep-21 10:16N 35°02' E 139°26'311.0
2017-Sep-21 09:59N 35°03' E 139°30'511.2
2017-Sep-21 09:30N 35°05' E 139°35'611.1
2017-Sep-21 09:00N 35°08' E 139°42'510.2
2017-Sep-21 08:30N 35°12' E 139°45'5 9.9
2017-Sep-21 08:00N 35°17' E 139°45'510.1
2017-Sep-21 07:30N 35°21' E 139°42'5 9.9
2017-Sep-21 07:00N 35°26' E 139°45'5 9.6
2017-Sep-21 06:30N 35°30' E 139°47'2 3.5
2017-Sep-21 06:00N 35°32' E 139°46'0 0.0
2017-Sep-21 05:30N 35°32' E 139°46'0 0.0
2017-Sep-21 05:00N 35°32' E 139°46'0 0.0
2017-Sep-21 04:30N 35°32' E 139°46'0 0.0
2017-Sep-21 04:00N 35°32' E 139°46'0 0.0
2017-Sep-21 03:30N 35°32' E 139°46'0 0.0
2017-Sep-21 03:00N 35°32' E 139°46'0 0.0
2017-Sep-21 02:30N 35°32' E 139°46'0 0.0
2017-Sep-21 02:00N 35°32' E 139°46'0 0.0
2017-Sep-21 01:30N 35°32' E 139°46'0 0.0
2017-Sep-21 01:00N 35°32' E 139°46'0 0.0
2017-Sep-21 00:30N 35°32' E 139°46'0 0.1
2017-Sep-21 00:01N 35°32' E 139°46'2 3.8
2017-Sep-20 23:30N 35°30' E 139°47'2 3.2
2017-Sep-20 23:00N 35°29' E 139°49'1 2.1
2017-Sep-20 22:30N 35°28' E 139°47'5 9.7
2017-Sep-20 22:00N 35°26' E 139°42'2 4.0
2017-Sep-20 21:30N 35°27' E 139°40'0 0.0
2017-Sep-20 21:00N 35°27' E 139°40'0 0.0
2017-Sep-20 20:30N 35°27' E 139°40'0 0.0
2017-Sep-20 20:00N 35°27' E 139°40'0 0.0
2017-Sep-20 19:30N 35°27' E 139°40'0 0.0
2017-Sep-20 19:00N 35°27' E 139°40'0 0.0
2017-Sep-20 18:30N 35°27' E 139°40'0 0.0
2017-Sep-20 18:00N 35°27' E 139°40'0 0.0
2017-Sep-20 17:30N 35°27' E 139°40'0 0.0
2017-Sep-20 17:00N 35°27' E 139°40'0 0.0
2017-Sep-20 16:30N 35°27' E 139°40'0 0.0
2017-Sep-20 16:00N 35°27' E 139°40'0 0.0
2017-Sep-20 15:30N 35°27' E 139°40'0 0.0
2017-Sep-20 15:00N 35°27' E 139°40'0 0.0
2017-Sep-20 14:00N 35°27' E 139°40'0 0.0
2017-Sep-20 13:30N 35°27' E 139°40'0 0.0
2017-Sep-20 13:00N 35°27' E 139°40'0 0.0
2017-Sep-20 12:30N 35°27' E 139°40'0 0.0
2017-Sep-20 12:00N 35°27' E 139°40'0 0.0
2017-Sep-20 11:30N 35°27' E 139°40'0 0.0
2017-Sep-20 11:00N 35°27' E 139°40'0 0.0
2017-Sep-20 10:30N 35°27' E 139°40'0 0.0
2017-Sep-20 10:00N 35°27' E 139°40'0 0.0
2017-Sep-20 09:30N 35°27' E 139°40'0 0.0
2017-Sep-20 09:00N 35°27' E 139°40'0 0.0
2017-Sep-20 08:30N 35°27' E 139°40'0 0.0
2017-Sep-20 08:00N 35°27' E 139°40'0 0.0
2017-Sep-20 07:30N 35°27' E 139°40'0 0.0
2017-Sep-20 07:00N 35°27' E 139°40'0 0.0
2017-Sep-20 06:30N 35°27' E 139°40'0 0.0
2017-Sep-20 06:00N 35°27' E 139°40'0 0.0
2017-Sep-20 05:30N 35°27' E 139°40'0 0.4
2017-Sep-20 05:00N 35°27' E 139°40'3 6.7
2017-Sep-20 04:30N 35°27' E 139°44'5 9.2
2017-Sep-20 04:00N 35°29' E 139°49'2 4.7
2017-Sep-20 03:30N 35°30' E 139°52'510.9
2017-Sep-20 03:00N 35°28' E 139°58'1 0.3
2017-Sep-19 23:22N 35°27' E 139°58'2 4.5
2017-Sep-19 22:53N 35°29' E 139°57'2 0.6
2017-Sep-19 19:53N 35°29' E 139°55'0 0.0
2017-Sep-19 19:29N 35°29' E 139°55'0 0.0
2017-Sep-19 18:59N 35°29' E 139°55'0 0.1
2017-Sep-19 18:23N 35°29' E 139°55'0 0.0
2017-Sep-19 17:53N 35°29' E 139°55'0 0.0
2017-Sep-19 17:29N 35°29' E 139°55'0 0.0
2017-Sep-19 16:59N 35°29' E 139°55'3 5.6
2017-Sep-19 16:30N 35°28' E 139°52'611.3
2017-Sep-19 16:01N 35°25' E 139°47'611.4
2017-Sep-19 15:31N 35°19' E 139°44'510.7
2017-Sep-19 15:01N 35°15' E 139°47'510.7
2017-Sep-19 14:31N 35°09' E 139°46'510.5
2017-Sep-19 14:00N 35°04' E 139°43'511.0
2017-Sep-19 13:31N 35°01' E 139°39'2313.0
2017-Sep-19 11:43N 34°48' E 139°15'413.2
2017-Sep-19 11:23N 34°45' E 139°11'219 9.6
2017-Sep-18 12:35N 34°04' E 134°49'  

Dump ship's entire track history